METAR Reports From Nearby Airports

 

KLUD - Decatur, Texas, USA
Distance from Wildwood: ESE 5mi, 8km
Updated: Jul 06, 2020 1:15am
Clear
Clear
 Wind from E
Wind: E 3 mph , 6 km/h
Temperature: 73°F , 23°C
Dew Point: 70°F , 21°C
Humidity: 89%
Barometer: 29.87 inHg , 1011.5 hPa
Clouds: Clear
Visibility: 10 miles , 16 km
2020/07/06 06:15 KLUD 060615Z AUTO 10003KT 10SM CLR 23/21 A2987 RMK AO2 T02310207
KXBP - Bridgeport, Texas, USA
Distance from Wildwood: WSW 11mi, 18km
Updated: Jul 06, 2020 1:15am
Clear
Clear
 Wind from calm
Wind: Calm
Temperature: 73°F , 23°C
Dew Point: 73°F , 23°C
Humidity: 100%
Barometer: 29.89 inHg , 1012.2 hPa
Clouds: Clear
Visibility: 10 miles , 16 km
2020/07/06 06:15 KXBP 060615Z AUTO 00000KT 10SM CLR 23/23 A2989 RMK AO2 LTG DSNT SE T02250225
 
K0F2 - Bowie, Texas, USA
Distance from Wildwood: NNW 24mi, 39km
Updated: Jul 06, 2020 1:15am
Light rain, Partly cloudy
Light rain, Partly cloudy
 Wind from NE
Wind: NE 3 mph , 6 km/h
Temperature: 75°F , 24°C
Dew Point: 75°F , 24°C
Humidity: 100%
Barometer: 29.89 inHg , 1012.2 hPa
Summary: Light Rain
Clouds: Partly Cloudy
Visibility: 10 miles , 16 km
Cloud details: Partly Cloudy 4100 ft
Partly Cloudy 4800 ft
2020/07/06 06:15 K0F2 060615Z AUTO 04003KT 10SM -RA SCT041 SCT048 24/24 A2989 RMK AO2 T02400235
KDTO - Denton, Texas, USA
Distance from Wildwood: E 27mi, 44km
Updated: Jul 06, 2020 12:53am
Clear
Clear
 Wind from calm
Wind: Calm
Temperature: 79°F , 26°C
Dew Point: 72°F , 22°C
Humidity: 79%
Barometer: 29.85 inHg , 1010.8 hPa
Clouds: Clear
Visibility: 10 miles , 16 km
2020/07/06 05:53 KDTO 060553Z AUTO 00000KT 10SM CLR 26/22 A2985 RMK AO2 LTG DSNT SE AND S SLP100 T02560217 10328 20256 403440250 50007
 
KAFW - Ft Worth/Allianc, Texas, USA
Distance from Wildwood: SE 29mi, 46km
Updated: Jul 06, 2020 12:53am
Light thunderstorm, Rain, Mostly cloudy
Light thunderstorm, Rain, Mostly cloudy
 Wind from calm
Wind: Calm
Temperature: 79°F , 26°C
Dew Point: 73°F , 23°C
Humidity: 84%
Barometer: 29.84 inHg , 1010.5 hPa
Summary: Light thunderstorm, Rain
Clouds: Mostly Cloudy
Visibility: 8 miles , 13 km
Cloud details: Few Clouds 2000 ft
Partly Cloudy 5000 ft
Partly Cloudy 11000 ft
Mostly Cloudy 15000 ft
2020/07/06 05:53 KAFW 060553Z 00000KT 8SM -TSRA FEW020 SCT050CB SCT110 BKN150 26/23 A2984 RMK AO2 LTG DSNT E AND SE SLP088 FRQ LTGICCCCG SE AND OCNL LTGIC DSNT SW TS SE MOV SE CB DSNT ALQDS P0009 60009 T02560228 10306 20250 403440239 50004
KFTW - Fort Worth, Texas, USA
Distance from Wildwood: SSE 34mi, 55km
Updated: Jul 06, 2020 12:53am
Partly Cloudy
Partly Cloudy
 Wind from ESE
Wind: ESE 7 mph , 11 km/h
Temperature: 79°F , 26°C
Dew Point: 70°F , 21°C
Humidity: 74%
Barometer: 29.85 inHg , 1010.8 hPa
Clouds: Partly Cloudy
Visibility: 10 miles , 16 km
Cloud details: Partly Cloudy 12000 ft
2020/07/06 05:53 KFTW 060553Z 11006KT 10SM SCT120 26/21 A2985 RMK AO2 LTG DSNT E-SW RAB02E16 SLP097 P0000 60000 T02560211 10317 20250 403390250 58002
 
KNFW - Fort Worth Nas, Texas, USA
Distance from Wildwood: SSE 36mi, 58km
Updated: Jul 06, 2020 12:52am
Thunderstorm, Few clouds
Thunderstorm, Few clouds
 Wind from S
Wind: S 5 mph , 7 km/h
Temperature: 79°F , 26°C
Dew Point: 70°F , 21°C
Humidity: 74%
Barometer: 29.86 inHg , 1011.2 hPa
Summary: Thunderstorm
Clouds: Few Clouds
Visibility: 10 miles , 16 km
Cloud details: Few Clouds 11000 ft
2020/07/06 05:52 KNFW 060552Z AUTO 17004KT 10SM TS FEW110 26/21 A2986 RMK AO2 TSB06E25B45 SLP096 T02560211 10339 20256 403560256 50000 VISNO N $
KGLE - Gainesville, Texas, USA
Distance from Wildwood: NE 38mi, 61km
Updated: Jul 06, 2020 1:15am
Clear
Clear
 Wind from N
Wind: N 5 mph , 7 km/h
Temperature: 75°F , 24°C
Dew Point: 75°F , 24°C
Humidity: 100%
Barometer: 29.89 inHg , 1012.2 hPa
Clouds: Clear
Visibility: 10 miles , 16 km
2020/07/06 06:15 KGLE 060615Z AUTO 01004KT 10SM CLR 24/24 A2989 RMK AO2 T02430235 PWINO
 
KMWL - Mineral Wells, Texas, USA
Distance from Wildwood: SW 41mi, 65km
Updated: Jul 06, 2020 12:53am
Mostly Cloudy
Mostly Cloudy
 Wind from NNE
Wind: NNE 5 mph , 7 km/h
Temperature: 75°F , 24°C
Dew Point: 66°F , 19°C
Humidity: 74%
Barometer: 29.85 inHg , 1010.8 hPa
Clouds: Mostly Cloudy
Visibility: 10 miles , 16 km
Cloud details: Mostly Cloudy 12000 ft
2020/07/06 05:53 KMWL 060553Z AUTO 03004KT 10SM BKN120 24/19 A2985 RMK AO2 SLP094 T02390194 10317 20239 403280239 50007
KDFW - Dallas/Ft Worth, Texas, USA
Distance from Wildwood: ESE 45mi, 73km
Updated: Jul 06, 2020 12:53am
Light thunderstorm, Rain, Overcast
Light thunderstorm, Rain, Overcast
 Wind from SSE
Wind: SSE 6 mph , 9 km/h
Temperature: 79°F , 26°C
Dew Point: 73°F , 23°C
Humidity: 84%
Barometer: 29.85 inHg , 1010.8 hPa
Summary: Light thunderstorm, Rain
Clouds: Overcast
Visibility: 10 miles , 16 km
Cloud details: Mostly Cloudy 3500 ft
Mostly Cloudy 5500 ft
Overcast 12000 ft
2020/07/06 05:53 KDFW 060553Z 16005KT 10SM -TSRA BKN035 BKN055CB OVC120 26/23 A2985 RMK AO2 RAB46 TSB19 SLP099 FRQ LTGICCC NE AND SE-SW TS NE AND SE-SW MOV SE P0000 60000 T02560228 10289 20256 403440233 50015 $